sensor_id;sensor_type;location;lat;lon;timestamp;P1;durP1;ratioP1;P2;durP2;ratioP2
27622;SDS011;15041;45.334;5.622;2024-01-07T00:02:06;2.20;;;2.10;;
27622;SDS011;15041;45.334;5.622;2024-01-07T00:04:34;2.13;;;2.03;;
27622;SDS011;15041;45.334;5.622;2024-01-07T00:07:03;3.33;;;2.77;;
27622;SDS011;15041;45.334;5.622;2024-01-07T00:09:30;2.40;;;2.30;;
27622;SDS011;15041;45.334;5.622;2024-01-07T00:11:58;2.47;;;2.27;;
27622;SDS011;15041;45.334;5.622;2024-01-07T00:14:25;2.80;;;2.60;;
27622;SDS011;15041;45.334;5.622;2024-01-07T00:16:52;1.93;;;1.83;;
27622;SDS011;15041;45.334;5.622;2024-01-07T00:19:19;1.70;;;1.60;;
27622;SDS011;15041;45.334;5.622;2024-01-07T00:21:48;2.10;;;2.00;;
27622;SDS011;15041;45.334;5.622;2024-01-07T00:24:16;2.20;;;2.10;;
27622;SDS011;15041;45.334;5.622;2024-01-07T00:26:43;3.30;;;2.63;;
27622;SDS011;15041;45.334;5.622;2024-01-07T00:29:11;2.40;;;2.20;;
27622;SDS011;15041;45.334;5.622;2024-01-07T00:31:38;1.80;;;1.70;;
27622;SDS011;15041;45.334;5.622;2024-01-07T00:34:06;1.93;;;1.83;;
27622;SDS011;15041;45.334;5.622;2024-01-07T00:36:33;2.60;;;2.40;;
27622;SDS011;15041;45.334;5.622;2024-01-07T00:39:02;2.30;;;2.10;;
27622;SDS011;15041;45.334;5.622;2024-01-07T00:41:29;3.07;;;2.70;;
27622;SDS011;15041;45.334;5.622;2024-01-07T00:43:56;2.80;;;2.60;;
27622;SDS011;15041;45.334;5.622;2024-01-07T00:46:24;2.50;;;2.30;;
27622;SDS011;15041;45.334;5.622;2024-01-07T00:48:51;3.00;;;2.73;;
27622;SDS011;15041;45.334;5.622;2024-01-07T00:51:18;3.93;;;3.33;;
27622;SDS011;15041;45.334;5.622;2024-01-07T00:53:45;2.50;;;2.30;;
27622;SDS011;15041;45.334;5.622;2024-01-07T00:56:13;1.60;;;1.50;;
27622;SDS011;15041;45.334;5.622;2024-01-07T00:58:41;1.77;;;1.67;;
27622;SDS011;15041;45.334;5.622;2024-01-07T01:01:08;1.87;;;1.40;;
27622;SDS011;15041;45.334;5.622;2024-01-07T01:03:35;1.90;;;1.60;;
27622;SDS011;15041;45.334;5.622;2024-01-07T01:06:03;1.90;;;1.80;;
27622;SDS011;15041;45.334;5.622;2024-01-07T01:08:30;1.90;;;1.70;;
27622;SDS011;15041;45.334;5.622;2024-01-07T01:10:58;1.20;;;1.20;;
27622;SDS011;15041;45.334;5.622;2024-01-07T01:13:26;1.23;;;1.23;;
27622;SDS011;15041;45.334;5.622;2024-01-07T01:15:53;1.83;;;1.73;;
27622;SDS011;15041;45.334;5.622;2024-01-07T01:18:21;1.37;;;1.27;;
27622;SDS011;15041;45.334;5.622;2024-01-07T01:20:48;1.27;;;1.20;;
27622;SDS011;15041;45.334;5.622;2024-01-07T01:23:16;1.00;;;1.00;;
27622;SDS011;15041;45.334;5.622;2024-01-07T01:25:43;0.93;;;0.93;;
27622;SDS011;15041;45.334;5.622;2024-01-07T01:28:11;1.77;;;1.67;;
27622;SDS011;15041;45.334;5.622;2024-01-07T01:30:39;1.30;;;1.20;;
27622;SDS011;15041;45.334;5.622;2024-01-07T01:33:07;1.00;;;1.00;;
27622;SDS011;15041;45.334;5.622;2024-01-07T01:35:38;1.40;;;1.30;;
27622;SDS011;15041;45.334;5.622;2024-01-07T01:38:05;1.23;;;1.13;;
27622;SDS011;15041;45.334;5.622;2024-01-07T01:40:33;1.37;;;1.27;;
27622;SDS011;15041;45.334;5.622;2024-01-07T01:43:01;1.40;;;1.30;;
27622;SDS011;15041;45.334;5.622;2024-01-07T01:45:28;1.47;;;1.37;;
27622;SDS011;15041;45.334;5.622;2024-01-07T01:47:56;1.60;;;1.50;;
27622;SDS011;15041;45.334;5.622;2024-01-07T01:50:24;1.33;;;1.23;;
27622;SDS011;15041;45.334;5.622;2024-01-07T01:52:51;1.50;;;1.40;;
27622;SDS011;15041;45.334;5.622;2024-01-07T01:55:21;1.60;;;1.50;;
27622;SDS011;15041;45.334;5.622;2024-01-07T01:57:48;2.00;;;1.90;;
27622;SDS011;15041;45.334;5.622;2024-01-07T02:00:18;2.77;;;1.90;;
27622;SDS011;15041;45.334;5.622;2024-01-07T02:02:45;1.33;;;1.23;;
27622;SDS011;15041;45.334;5.622;2024-01-07T02:05:13;0.90;;;0.90;;
27622;SDS011;15041;45.334;5.622;2024-01-07T02:07:41;1.40;;;1.30;;
27622;SDS011;15041;45.334;5.622;2024-01-07T02:10:08;1.10;;;1.10;;
27622;SDS011;15041;45.334;5.622;2024-01-07T02:12:36;1.30;;;1.30;;
27622;SDS011;15041;45.334;5.622;2024-01-07T02:15:04;1.00;;;1.00;;
27622;SDS011;15041;45.334;5.622;2024-01-07T02:17:32;1.07;;;1.00;;
27622;SDS011;15041;45.334;5.622;2024-01-07T02:20:00;1.00;;;1.00;;
27622;SDS011;15041;45.334;5.622;2024-01-07T02:22:29;1.37;;;1.10;;
27622;SDS011;15041;45.334;5.622;2024-01-07T02:24:57;0.80;;;0.80;;
27622;SDS011;15041;45.334;5.622;2024-01-07T02:27:24;0.93;;;0.93;;
27622;SDS011;15041;45.334;5.622;2024-01-07T02:29:51;0.87;;;0.87;;
27622;SDS011;15041;45.334;5.622;2024-01-07T02:32:19;1.03;;;0.90;;
27622;SDS011;15041;45.334;5.622;2024-01-07T02:34:46;0.70;;;0.70;;
27622;SDS011;15041;45.334;5.622;2024-01-07T02:37:13;0.83;;;0.83;;
27622;SDS011;15041;45.334;5.622;2024-01-07T02:39:40;0.70;;;0.70;;
27622;SDS011;15041;45.334;5.622;2024-01-07T02:42:09;0.80;;;0.80;;
27622;SDS011;15041;45.334;5.622;2024-01-07T02:44:36;0.70;;;0.70;;
27622;SDS011;15041;45.334;5.622;2024-01-07T02:47:03;1.00;;;1.00;;
27622;SDS011;15041;45.334;5.622;2024-01-07T02:49:31;0.80;;;0.80;;
27622;SDS011;15041;45.334;5.622;2024-01-07T02:51:58;0.93;;;0.80;;
27622;SDS011;15041;45.334;5.622;2024-01-07T02:54:25;0.93;;;0.93;;
27622;SDS011;15041;45.334;5.622;2024-01-07T02:56:52;0.97;;;0.97;;
27622;SDS011;15041;45.334;5.622;2024-01-07T02:59:20;0.80;;;0.77;;
27622;SDS011;15041;45.334;5.622;2024-01-07T03:01:48;0.70;;;0.70;;
27622;SDS011;15041;45.334;5.622;2024-01-07T03:04:15;0.67;;;0.67;;
27622;SDS011;15041;45.334;5.622;2024-01-07T03:06:43;0.90;;;0.90;;
27622;SDS011;15041;45.334;5.622;2024-01-07T03:09:10;0.80;;;0.80;;
27622;SDS011;15041;45.334;5.622;2024-01-07T03:11:38;1.67;;;0.90;;
27622;SDS011;15041;45.334;5.622;2024-01-07T03:14:06;0.70;;;0.70;;
27622;SDS011;15041;45.334;5.622;2024-01-07T03:16:35;0.80;;;0.80;;
27622;SDS011;15041;45.334;5.622;2024-01-07T03:19:02;0.80;;;0.80;;
27622;SDS011;15041;45.334;5.622;2024-01-07T03:21:30;0.80;;;0.80;;
27622;SDS011;15041;45.334;5.622;2024-01-07T03:23:57;0.90;;;0.90;;
27622;SDS011;15041;45.334;5.622;2024-01-07T03:26:24;0.90;;;0.90;;
27622;SDS011;15041;45.334;5.622;2024-01-07T03:28:55;0.70;;;0.70;;
27622;SDS011;15041;45.334;5.622;2024-01-07T03:31:25;1.10;;;1.10;;
27622;SDS011;15041;45.334;5.622;2024-01-07T03:33:54;0.80;;;0.80;;
27622;SDS011;15041;45.334;5.622;2024-01-07T03:36:22;0.97;;;0.97;;
27622;SDS011;15041;45.334;5.622;2024-01-07T03:38:49;0.70;;;0.70;;
27622;SDS011;15041;45.334;5.622;2024-01-07T03:41:18;1.00;;;1.00;;
27622;SDS011;15041;45.334;5.622;2024-01-07T03:43:46;1.10;;;1.07;;
27622;SDS011;15041;45.334;5.622;2024-01-07T03:46:13;0.83;;;0.83;;
27622;SDS011;15041;45.334;5.622;2024-01-07T03:48:41;1.10;;;1.10;;
27622;SDS011;15041;45.334;5.622;2024-01-07T03:51:10;1.00;;;1.00;;
27622;SDS011;15041;45.334;5.622;2024-01-07T03:53:37;1.00;;;1.00;;
27622;SDS011;15041;45.334;5.622;2024-01-07T03:56:05;1.80;;;1.07;;
27622;SDS011;15041;45.334;5.622;2024-01-07T03:58:32;1.00;;;1.00;;
27622;SDS011;15041;45.334;5.622;2024-01-07T04:01:00;1.67;;;1.57;;
27622;SDS011;15041;45.334;5.622;2024-01-07T04:03:27;1.43;;;1.40;;
27622;SDS011;15041;45.334;5.622;2024-01-07T04:05:54;1.10;;;1.10;;
27622;SDS011;15041;45.334;5.622;2024-01-07T04:08:22;1.20;;;1.20;;
27622;SDS011;15041;45.334;5.622;2024-01-07T04:10:49;0.90;;;0.90;;
27622;SDS011;15041;45.334;5.622;2024-01-07T04:13:17;1.80;;;1.70;;
27622;SDS011;15041;45.334;5.622;2024-01-07T04:15:44;1.30;;;1.20;;
27622;SDS011;15041;45.334;5.622;2024-01-07T04:18:11;1.00;;;1.00;;
27622;SDS011;15041;45.334;5.622;2024-01-07T04:20:39;1.30;;;1.20;;
27622;SDS011;15041;45.334;5.622;2024-01-07T04:23:06;5.93;;;3.83;;
27622;SDS011;15041;45.334;5.622;2024-01-07T04:25:35;2.37;;;2.00;;
27622;SDS011;15041;45.334;5.622;2024-01-07T04:28:02;1.60;;;1.50;;
27622;SDS011;15041;45.334;5.622;2024-01-07T04:30:29;1.50;;;1.40;;
27622;SDS011;15041;45.334;5.622;2024-01-07T04:32:57;1.00;;;1.00;;
27622;SDS011;15041;45.334;5.622;2024-01-07T04:35:24;1.10;;;1.10;;
27622;SDS011;15041;45.334;5.622;2024-01-07T04:37:51;0.93;;;0.93;;
27622;SDS011;15041;45.334;5.622;2024-01-07T04:40:18;0.80;;;0.80;;
27622;SDS011;15041;45.334;5.622;2024-01-07T04:42:47;1.27;;;1.20;;
27622;SDS011;15041;45.334;5.622;2024-01-07T04:45:14;1.13;;;1.13;;
27622;SDS011;15041;45.334;5.622;2024-01-07T04:47:41;2.00;;;1.07;;
27622;SDS011;15041;45.334;5.622;2024-01-07T04:50:08;0.80;;;0.80;;
27622;SDS011;15041;45.334;5.622;2024-01-07T04:52:36;0.67;;;0.67;;
27622;SDS011;15041;45.334;5.622;2024-01-07T04:55:04;1.17;;;1.17;;
27622;SDS011;15041;45.334;5.622;2024-01-07T04:57:32;0.73;;;0.73;;
27622;SDS011;15041;45.334;5.622;2024-01-07T05:00:01;1.03;;;0.70;;
27622;SDS011;15041;45.334;5.622;2024-01-07T05:02:30;0.90;;;0.90;;
27622;SDS011;15041;45.334;5.622;2024-01-07T05:04:57;0.70;;;0.70;;
27622;SDS011;15041;45.334;5.622;2024-01-07T05:07:24;0.87;;;0.87;;
27622;SDS011;15041;45.334;5.622;2024-01-07T05:09:51;0.87;;;0.87;;
27622;SDS011;15041;45.334;5.622;2024-01-07T05:12:18;0.90;;;0.90;;
27622;SDS011;15041;45.334;5.622;2024-01-07T05:14:46;0.73;;;0.73;;
27622;SDS011;15041;45.334;5.622;2024-01-07T05:17:15;1.07;;;0.97;;
27622;SDS011;15041;45.334;5.622;2024-01-07T05:19:42;1.30;;;1.20;;
27622;SDS011;15041;45.334;5.622;2024-01-07T05:22:09;0.80;;;0.80;;
27622;SDS011;15041;45.334;5.622;2024-01-07T05:24:36;0.73;;;0.73;;
27622;SDS011;15041;45.334;5.622;2024-01-07T05:27:04;0.97;;;0.97;;
27622;SDS011;15041;45.334;5.622;2024-01-07T05:29:31;0.87;;;0.87;;
27622;SDS011;15041;45.334;5.622;2024-01-07T05:31:59;1.00;;;1.00;;
27622;SDS011;15041;45.334;5.622;2024-01-07T05:34:29;1.30;;;1.20;;
27622;SDS011;15041;45.334;5.622;2024-01-07T05:36:56;1.20;;;1.20;;
27622;SDS011;15041;45.334;5.622;2024-01-07T05:39:23;1.57;;;1.47;;
27622;SDS011;15041;45.334;5.622;2024-01-07T05:41:51;2.07;;;1.87;;
27622;SDS011;15041;45.334;5.622;2024-01-07T05:44:18;1.90;;;1.80;;
27622;SDS011;15041;45.334;5.622;2024-01-07T05:46:45;2.47;;;2.07;;
27622;SDS011;15041;45.334;5.622;2024-01-07T05:49:12;1.87;;;1.77;;
27622;SDS011;15041;45.334;5.622;2024-01-07T05:51:41;1.30;;;1.20;;
27622;SDS011;15041;45.334;5.622;2024-01-07T05:54:08;0.90;;;0.90;;
27622;SDS011;15041;45.334;5.622;2024-01-07T05:56:38;0.97;;;0.97;;
27622;SDS011;15041;45.334;5.622;2024-01-07T05:59:06;0.90;;;0.90;;
27622;SDS011;15041;45.334;5.622;2024-01-07T06:01:33;0.70;;;0.70;;
27622;SDS011;15041;45.334;5.622;2024-01-07T06:04:00;1.10;;;1.10;;
27622;SDS011;15041;45.334;5.622;2024-01-07T06:06:27;0.80;;;0.80;;
27622;SDS011;15041;45.334;5.622;2024-01-07T06:08:56;0.77;;;0.77;;
27622;SDS011;15041;45.334;5.622;2024-01-07T06:11:23;0.93;;;0.93;;
27622;SDS011;15041;45.334;5.622;2024-01-07T06:13:50;0.80;;;0.80;;
27622;SDS011;15041;45.334;5.622;2024-01-07T06:16:18;0.87;;;0.87;;
27622;SDS011;15041;45.334;5.622;2024-01-07T06:18:45;0.70;;;0.70;;
27622;SDS011;15041;45.334;5.622;2024-01-07T06:21:12;0.60;;;0.60;;
27622;SDS011;15041;45.334;5.622;2024-01-07T06:23:39;0.87;;;0.87;;
27622;SDS011;15041;45.334;5.622;2024-01-07T06:26:08;0.80;;;0.80;;
27622;SDS011;15041;45.334;5.622;2024-01-07T06:28:35;0.80;;;0.80;;
27622;SDS011;15041;45.334;5.622;2024-01-07T06:31:02;0.90;;;0.90;;
27622;SDS011;15041;45.334;5.622;2024-01-07T06:33:30;0.80;;;0.80;;
27622;SDS011;15041;45.334;5.622;2024-01-07T06:35:57;0.67;;;0.67;;
27622;SDS011;15041;45.334;5.622;2024-01-07T06:38:24;0.87;;;0.87;;
27622;SDS011;15041;45.334;5.622;2024-01-07T06:40:51;0.80;;;0.80;;
27622;SDS011;15041;45.334;5.622;2024-01-07T06:43:21;0.70;;;0.70;;
27622;SDS011;15041;45.334;5.622;2024-01-07T06:45:48;0.70;;;0.70;;
27622;SDS011;15041;45.334;5.622;2024-01-07T06:48:15;1.00;;;1.00;;
27622;SDS011;15041;45.334;5.622;2024-01-07T06:50:42;1.00;;;1.00;;
27622;SDS011;15041;45.334;5.622;2024-01-07T06:53:09;0.80;;;0.80;;
27622;SDS011;15041;45.334;5.622;2024-01-07T06:55:37;0.70;;;0.70;;
27622;SDS011;15041;45.334;5.622;2024-01-07T06:58:04;1.00;;;1.00;;
27622;SDS011;15041;45.334;5.622;2024-01-07T07:00:32;0.87;;;0.87;;
27622;SDS011;15041;45.334;5.622;2024-01-07T07:03:00;0.80;;;0.80;;
27622;SDS011;15041;45.334;5.622;2024-01-07T07:05:27;1.00;;;1.00;;
27622;SDS011;15041;45.334;5.622;2024-01-07T07:07:54;1.00;;;1.00;;
27622;SDS011;15041;45.334;5.622;2024-01-07T07:10:21;1.10;;;1.10;;
27622;SDS011;15041;45.334;5.622;2024-01-07T07:12:49;1.40;;;1.30;;
27622;SDS011;15041;45.334;5.622;2024-01-07T07:15:16;1.00;;;1.00;;
27622;SDS011;15041;45.334;5.622;2024-01-07T07:17:45;1.13;;;0.80;;
27622;SDS011;15041;45.334;5.622;2024-01-07T07:20:12;1.00;;;1.00;;
27622;SDS011;15041;45.334;5.622;2024-01-07T07:22:39;1.83;;;1.73;;
27622;SDS011;15041;45.334;5.622;2024-01-07T07:25:07;1.43;;;1.33;;
27622;SDS011;15041;45.334;5.622;2024-01-07T07:27:35;2.97;;;1.50;;
27622;SDS011;15041;45.334;5.622;2024-01-07T07:30:03;1.33;;;1.27;;
27622;SDS011;15041;45.334;5.622;2024-01-07T07:32:31;1.23;;;1.13;;
27622;SDS011;15041;45.334;5.622;2024-01-07T07:35:00;1.00;;;1.00;;
27622;SDS011;15041;45.334;5.622;2024-01-07T07:37:27;0.80;;;0.80;;
27622;SDS011;15041;45.334;5.622;2024-01-07T07:39:54;0.70;;;0.70;;
27622;SDS011;15041;45.334;5.622;2024-01-07T07:42:22;0.93;;;0.93;;
27622;SDS011;15041;45.334;5.622;2024-01-07T07:44:49;1.00;;;1.00;;
27622;SDS011;15041;45.334;5.622;2024-01-07T07:47:16;1.10;;;1.10;;
27622;SDS011;15041;45.334;5.622;2024-01-07T07:49:43;2.20;;;2.00;;
27622;SDS011;15041;45.334;5.622;2024-01-07T07:52:12;2.00;;;1.60;;
27622;SDS011;15041;45.334;5.622;2024-01-07T07:54:40;1.10;;;1.10;;
27622;SDS011;15041;45.334;5.622;2024-01-07T07:57:07;0.80;;;0.80;;
27622;SDS011;15041;45.334;5.622;2024-01-07T07:59:35;1.00;;;1.00;;
27622;SDS011;15041;45.334;5.622;2024-01-07T08:02:02;0.97;;;0.97;;
27622;SDS011;15041;45.334;5.622;2024-01-07T08:04:29;1.50;;;1.40;;
27622;SDS011;15041;45.334;5.622;2024-01-07T08:06:57;1.47;;;1.40;;
27622;SDS011;15041;45.334;5.622;2024-01-07T08:09:27;1.17;;;1.17;;
27622;SDS011;15041;45.334;5.622;2024-01-07T08:11:54;2.57;;;2.33;;
27622;SDS011;15041;45.334;5.622;2024-01-07T08:14:21;2.20;;;2.00;;
27622;SDS011;15041;45.334;5.622;2024-01-07T08:16:48;1.90;;;1.80;;
27622;SDS011;15041;45.334;5.622;2024-01-07T08:19:16;3.03;;;2.20;;
27622;SDS011;15041;45.334;5.622;2024-01-07T08:21:43;1.47;;;1.40;;
27622;SDS011;15041;45.334;5.622;2024-01-07T08:24:10;1.67;;;1.57;;
27622;SDS011;15041;45.334;5.622;2024-01-07T08:26:39;1.60;;;1.50;;
27622;SDS011;15041;45.334;5.622;2024-01-07T08:29:06;1.80;;;1.70;;
27622;SDS011;15041;45.334;5.622;2024-01-07T08:31:33;2.10;;;1.90;;
27622;SDS011;15041;45.334;5.622;2024-01-07T08:34:01;2.13;;;2.03;;
27622;SDS011;15041;45.334;5.622;2024-01-07T08:36:28;3.83;;;2.10;;
27622;SDS011;15041;45.334;5.622;2024-01-07T08:38:55;5.53;;;4.03;;
27622;SDS011;15041;45.334;5.622;2024-01-07T08:41:22;2.10;;;1.90;;
27622;SDS011;15041;45.334;5.622;2024-01-07T08:43:51;2.57;;;2.37;;
27622;SDS011;15041;45.334;5.622;2024-01-07T08:46:20;1.73;;;1.63;;
27622;SDS011;15041;45.334;5.622;2024-01-07T08:48:47;1.63;;;1.53;;
27622;SDS011;15041;45.334;5.622;2024-01-07T08:51:14;1.30;;;1.20;;
27622;SDS011;15041;45.334;5.622;2024-01-07T08:53:42;1.83;;;1.73;;
27622;SDS011;15041;45.334;5.622;2024-01-07T08:56:09;2.50;;;2.07;;
27622;SDS011;15041;45.334;5.622;2024-01-07T08:58:36;2.60;;;2.40;;
27622;SDS011;15041;45.334;5.622;2024-01-07T09:01:05;2.37;;;2.17;;
27622;SDS011;15041;45.334;5.622;2024-01-07T09:03:32;2.47;;;2.13;;
27622;SDS011;15041;45.334;5.622;2024-01-07T09:05:59;2.30;;;2.20;;
27622;SDS011;15041;45.334;5.622;2024-01-07T09:08:26;4.20;;;3.20;;
27622;SDS011;15041;45.334;5.622;2024-01-07T09:10:53;2.30;;;2.10;;
27622;SDS011;15041;45.334;5.622;2024-01-07T09:13:20;3.40;;;3.00;;
27622;SDS011;15041;45.334;5.622;2024-01-07T09:15:47;3.50;;;3.20;;
27622;SDS011;15041;45.334;5.622;2024-01-07T09:18:16;17.03;;;8.00;;
27622;SDS011;15041;45.334;5.622;2024-01-07T09:20:43;6.93;;;4.33;;
27622;SDS011;15041;45.334;5.622;2024-01-07T09:23:11;2.67;;;2.30;;
27622;SDS011;15041;45.334;5.622;2024-01-07T09:25:40;2.80;;;2.43;;
27622;SDS011;15041;45.334;5.622;2024-01-07T09:28:08;3.90;;;3.07;;
27622;SDS011;15041;45.334;5.622;2024-01-07T09:30:36;5.10;;;3.77;;
27622;SDS011;15041;45.334;5.622;2024-01-07T09:33:04;4.03;;;3.70;;
27622;SDS011;15041;45.334;5.622;2024-01-07T09:35:34;4.87;;;3.20;;
27622;SDS011;15041;45.334;5.622;2024-01-07T09:38:01;5.40;;;4.90;;
27622;SDS011;15041;45.334;5.622;2024-01-07T09:40:29;5.97;;;4.40;;
27622;SDS011;15041;45.334;5.622;2024-01-07T09:42:56;2.87;;;2.57;;
27622;SDS011;15041;45.334;5.622;2024-01-07T09:45:24;2.87;;;2.40;;
27622;SDS011;15041;45.334;5.622;2024-01-07T09:47:52;2.20;;;2.00;;
27622;SDS011;15041;45.334;5.622;2024-01-07T09:50:20;1.70;;;1.60;;
27622;SDS011;15041;45.334;5.622;2024-01-07T09:52:48;3.27;;;2.83;;
27622;SDS011;15041;45.334;5.622;2024-01-07T09:55:21;3.03;;;2.43;;
27622;SDS011;15041;45.334;5.622;2024-01-07T09:57:53;2.30;;;2.10;;
27622;SDS011;15041;45.334;5.622;2024-01-07T10:00:20;2.30;;;1.70;;
27622;SDS011;15041;45.334;5.622;2024-01-07T10:02:47;1.80;;;1.70;;
27622;SDS011;15041;45.334;5.622;2024-01-07T10:05:15;1.83;;;1.73;;
27622;SDS011;15041;45.334;5.622;2024-01-07T10:07:42;1.80;;;1.70;;
27622;SDS011;15041;45.334;5.622;2024-01-07T10:10:14;1.70;;;1.33;;
27622;SDS011;15041;45.334;5.622;2024-01-07T10:12:43;1.13;;;1.13;;
27622;SDS011;15041;45.334;5.622;2024-01-07T10:15:10;1.20;;;1.10;;
27622;SDS011;15041;45.334;5.622;2024-01-07T10:17:37;1.70;;;1.60;;
27622;SDS011;15041;45.334;5.622;2024-01-07T10:20:07;8.03;;;2.60;;
27622;SDS011;15041;45.334;5.622;2024-01-07T10:22:36;1.97;;;1.57;;
27622;SDS011;15041;45.334;5.622;2024-01-07T10:25:05;1.17;;;1.10;;
27622;SDS011;15041;45.334;5.622;2024-01-07T10:27:34;1.40;;;1.10;;
27622;SDS011;15041;45.334;5.622;2024-01-07T10:30:03;1.93;;;1.53;;
27622;SDS011;15041;45.334;5.622;2024-01-07T10:32:31;1.90;;;1.80;;
27622;SDS011;15041;45.334;5.622;2024-01-07T10:35:01;1.70;;;1.60;;
27622;SDS011;15041;45.334;5.622;2024-01-07T10:37:30;1.57;;;1.47;;
27622;SDS011;15041;45.334;5.622;2024-01-07T10:39:58;2.20;;;1.97;;
27622;SDS011;15041;45.334;5.622;2024-01-07T10:42:30;1.90;;;1.80;;
27622;SDS011;15041;45.334;5.622;2024-01-07T10:45:00;1.83;;;1.73;;
27622;SDS011;15041;45.334;5.622;2024-01-07T10:47:27;1.90;;;1.80;;
27622;SDS011;15041;45.334;5.622;2024-01-07T10:49:57;1.80;;;1.70;;
27622;SDS011;15041;45.334;5.622;2024-01-07T10:52:26;1.87;;;1.77;;
27622;SDS011;15041;45.334;5.622;2024-01-07T10:54:55;2.50;;;2.30;;
27622;SDS011;15041;45.334;5.622;2024-01-07T10:57:32;2.10;;;2.00;;
27622;SDS011;15041;45.334;5.622;2024-01-07T11:00:03;2.70;;;2.50;;
27622;SDS011;15041;45.334;5.622;2024-01-07T11:02:33;2.00;;;1.90;;
27622;SDS011;15041;45.334;5.622;2024-01-07T11:05:07;1.90;;;1.80;;
27622;SDS011;15041;45.334;5.622;2024-01-07T11:07:43;1.43;;;1.40;;
27622;SDS011;15041;45.334;5.622;2024-01-07T11:10:14;1.73;;;1.63;;
27622;SDS011;15041;45.334;5.622;2024-01-07T11:12:48;1.77;;;1.67;;
27622;SDS011;15041;45.334;5.622;2024-01-07T11:18:27;1.80;;;1.70;;
27622;SDS011;15041;45.334;5.622;2024-01-07T11:20:59;2.03;;;1.93;;
27622;SDS011;15041;45.334;5.622;2024-01-07T11:23:28;1.83;;;1.73;;
27622;SDS011;15041;45.334;5.622;2024-01-07T11:25:58;2.47;;;2.37;;
27622;SDS011;15041;45.334;5.622;2024-01-07T11:31:11;2.13;;;2.00;;
27622;SDS011;15041;45.334;5.622;2024-01-07T11:33:40;2.80;;;2.60;;
27622;SDS011;15041;45.334;5.622;2024-01-07T11:36:10;3.77;;;2.37;;
27622;SDS011;15041;45.334;5.622;2024-01-07T11:38:38;2.00;;;1.90;;
27622;SDS011;15041;45.334;5.622;2024-01-07T11:41:08;1.97;;;1.80;;
27622;SDS011;15041;45.334;5.622;2024-01-07T11:43:37;2.10;;;1.90;;
27622;SDS011;15041;45.334;5.622;2024-01-07T11:46:04;2.37;;;2.17;;
27622;SDS011;15041;45.334;5.622;2024-01-07T11:48:31;2.43;;;2.00;;
27622;SDS011;15041;45.334;5.622;2024-01-07T11:51:00;1.90;;;1.80;;
27622;SDS011;15041;45.334;5.622;2024-01-07T11:53:27;1.80;;;1.70;;
27622;SDS011;15041;45.334;5.622;2024-01-07T11:55:55;2.47;;;1.70;;
27622;SDS011;15041;45.334;5.622;2024-01-07T11:58:23;1.60;;;1.50;;
27622;SDS011;15041;45.334;5.622;2024-01-07T12:00:50;1.80;;;1.70;;
27622;SDS011;15041;45.334;5.622;2024-01-07T12:03:17;1.90;;;1.80;;
27622;SDS011;15041;45.334;5.622;2024-01-07T12:05:45;2.40;;;2.20;;
27622;SDS011;15041;45.334;5.622;2024-01-07T12:08:15;3.17;;;2.87;;
27622;SDS011;15041;45.334;5.622;2024-01-07T12:10:43;2.67;;;2.47;;
27622;SDS011;15041;45.334;5.622;2024-01-07T12:13:11;2.80;;;2.60;;
27622;SDS011;15041;45.334;5.622;2024-01-07T12:15:38;3.10;;;2.90;;
27622;SDS011;15041;45.334;5.622;2024-01-07T12:18:06;3.83;;;3.43;;
27622;SDS011;15041;45.334;5.622;2024-01-07T12:20:34;3.70;;;3.40;;
27622;SDS011;15041;45.334;5.622;2024-01-07T12:23:08;5.83;;;4.23;;
27622;SDS011;15041;45.334;5.622;2024-01-07T12:25:37;3.37;;;3.07;;
27622;SDS011;15041;45.334;5.622;2024-01-07T12:28:06;3.10;;;2.63;;
27622;SDS011;15041;45.334;5.622;2024-01-07T12:30:34;2.00;;;1.90;;
27622;SDS011;15041;45.334;5.622;2024-01-07T12:33:04;5.43;;;4.00;;
27622;SDS011;15041;45.334;5.622;2024-01-07T12:35:31;6.23;;;4.77;;
27622;SDS011;15041;45.334;5.622;2024-01-07T12:37:59;3.33;;;2.70;;
27622;SDS011;15041;45.334;5.622;2024-01-07T12:40:26;3.83;;;3.47;;
27622;SDS011;15041;45.334;5.622;2024-01-07T12:42:55;3.80;;;3.30;;
27622;SDS011;15041;45.334;5.622;2024-01-07T12:45:23;3.90;;;3.50;;
27622;SDS011;15041;45.334;5.622;2024-01-07T12:47:50;5.80;;;5.10;;
27622;SDS011;15041;45.334;5.622;2024-01-07T12:50:20;2.70;;;2.50;;
27622;SDS011;15041;45.334;5.622;2024-01-07T12:52:48;2.73;;;1.90;;
27622;SDS011;15041;45.334;5.622;2024-01-07T12:55:15;2.80;;;2.60;;
27622;SDS011;15041;45.334;5.622;2024-01-07T12:57:43;5.13;;;4.53;;
27622;SDS011;15041;45.334;5.622;2024-01-07T13:00:12;3.97;;;3.50;;
27622;SDS011;15041;45.334;5.622;2024-01-07T13:02:39;3.33;;;3.03;;
27622;SDS011;15041;45.334;5.622;2024-01-07T13:05:07;5.60;;;3.50;;
27622;SDS011;15041;45.334;5.622;2024-01-07T13:07:34;7.37;;;4.40;;
27622;SDS011;15041;45.334;5.622;2024-01-07T13:10:02;4.30;;;3.70;;
27622;SDS011;15041;45.334;5.622;2024-01-07T13:12:29;3.93;;;3.17;;
27622;SDS011;15041;45.334;5.622;2024-01-07T13:14:58;4.00;;;3.10;;
27622;SDS011;15041;45.334;5.622;2024-01-07T13:17:26;3.30;;;3.10;;
27622;SDS011;15041;45.334;5.622;2024-01-07T13:19:55;2.63;;;2.43;;
27622;SDS011;15041;45.334;5.622;2024-01-07T13:22:23;2.50;;;2.30;;
27622;SDS011;15041;45.334;5.622;2024-01-07T13:24:50;2.67;;;2.47;;
27622;SDS011;15041;45.334;5.622;2024-01-07T13:27:19;5.57;;;4.33;;
27622;SDS011;15041;45.334;5.622;2024-01-07T13:29:48;3.20;;;2.97;;
27622;SDS011;15041;45.334;5.622;2024-01-07T13:32:16;4.47;;;3.13;;
27622;SDS011;15041;45.334;5.622;2024-01-07T13:34:45;1.80;;;1.70;;
27622;SDS011;15041;45.334;5.622;2024-01-07T13:37:13;5.40;;;4.60;;
27622;SDS011;15041;45.334;5.622;2024-01-07T13:39:40;3.83;;;3.30;;
27622;SDS011;15041;45.334;5.622;2024-01-07T13:42:08;4.73;;;2.60;;
27622;SDS011;15041;45.334;5.622;2024-01-07T13:44:35;2.30;;;2.10;;
27622;SDS011;15041;45.334;5.622;2024-01-07T13:47:09;6.17;;;3.57;;
27622;SDS011;15041;45.334;5.622;2024-01-07T13:49:37;6.37;;;5.77;;
27622;SDS011;15041;45.334;5.622;2024-01-07T13:52:05;2.90;;;2.70;;
27622;SDS011;15041;45.334;5.622;2024-01-07T13:54:32;2.67;;;2.47;;
27622;SDS011;15041;45.334;5.622;2024-01-07T13:57:00;3.00;;;2.70;;
27622;SDS011;15041;45.334;5.622;2024-01-07T13:59:27;2.77;;;2.20;;
27622;SDS011;15041;45.334;5.622;2024-01-07T14:01:54;2.50;;;2.30;;
27622;SDS011;15041;45.334;5.622;2024-01-07T14:04:23;2.60;;;2.40;;
27622;SDS011;15041;45.334;5.622;2024-01-07T14:06:53;2.33;;;2.10;;
27622;SDS011;15041;45.334;5.622;2024-01-07T14:09:22;2.60;;;2.40;;
27622;SDS011;15041;45.334;5.622;2024-01-07T14:11:49;2.53;;;2.33;;
27622;SDS011;15041;45.334;5.622;2024-01-07T14:14:17;3.50;;;2.40;;
27622;SDS011;15041;45.334;5.622;2024-01-07T14:16:45;5.73;;;4.23;;
27622;SDS011;15041;45.334;5.622;2024-01-07T14:19:13;2.90;;;2.70;;
27622;SDS011;15041;45.334;5.622;2024-01-07T14:21:41;2.90;;;2.70;;
27622;SDS011;15041;45.334;5.622;2024-01-07T14:24:08;2.43;;;2.27;;
27622;SDS011;15041;45.334;5.622;2024-01-07T14:26:37;2.70;;;2.50;;
27622;SDS011;15041;45.334;5.622;2024-01-07T14:29:04;4.00;;;3.60;;
27622;SDS011;15041;45.334;5.622;2024-01-07T14:31:31;4.73;;;3.30;;
27622;SDS011;15041;45.334;5.622;2024-01-07T14:33:59;2.70;;;2.50;;
27622;SDS011;15041;45.334;5.622;2024-01-07T14:36:26;4.40;;;3.23;;
27622;SDS011;15041;45.334;5.622;2024-01-07T14:38:53;3.13;;;2.90;;
27622;SDS011;15041;45.334;5.622;2024-01-07T14:41:20;4.10;;;2.30;;
27622;SDS011;15041;45.334;5.622;2024-01-07T14:43:49;2.63;;;2.43;;
27622;SDS011;15041;45.334;5.622;2024-01-07T14:46:16;2.70;;;2.50;;
27622;SDS011;15041;45.334;5.622;2024-01-07T14:48:43;2.70;;;2.50;;
27622;SDS011;15041;45.334;5.622;2024-01-07T14:51:10;2.37;;;2.20;;
27622;SDS011;15041;45.334;5.622;2024-01-07T14:53:38;2.73;;;2.53;;
27622;SDS011;15041;45.334;5.622;2024-01-07T14:56:05;2.67;;;2.47;;
27622;SDS011;15041;45.334;5.622;2024-01-07T14:58:32;15.43;;;9.40;;